createdAt,value
2022-08-20T00:01:09.825Z,95892.06
2022-08-20T00:06:19.167Z,95884.78
2022-08-20T00:11:25.169Z,95899.31
2022-08-20T00:16:32.618Z,95897.03
2022-08-20T00:21:36.730Z,95896.50
2022-08-20T00:26:38.833Z,95891.13
2022-08-20T00:31:54.509Z,95895.56
2022-08-20T00:36:56.921Z,95880.06
2022-08-20T00:41:59.618Z,95885.66
2022-08-20T00:47:02.557Z,95875.78
2022-08-20T00:52:05.117Z,95886.09
2022-08-20T00:57:22.215Z,95883.59
2022-08-20T01:02:28.315Z,95868.50
2022-08-20T01:07:37.291Z,95873.13
2022-08-20T01:12:42.297Z,95867.25
2022-08-20T01:17:49.683Z,95873.69
2022-08-20T01:23:27.966Z,95874.38
2022-08-20T01:29:01.984Z,95871.16
2022-08-20T01:34:09.092Z,95862.41
2022-08-20T01:39:15.281Z,95844.84
2022-08-20T01:44:18.463Z,95853.59
2022-08-20T01:49:30.274Z,95852.34
2022-08-20T01:54:34.267Z,95839.69
2022-08-20T01:59:37.298Z,95829.53
2022-08-20T02:04:41.150Z,95840.97
2022-08-20T02:09:44.626Z,95838.13
2022-08-20T02:14:51.472Z,95838.41
2022-08-20T02:20:10.602Z,95830.06
2022-08-20T02:25:14.708Z,95823.41
2022-08-20T02:30:27.755Z,95817.97
2022-08-20T02:35:31.673Z,95812.88
2022-08-20T02:40:36.656Z,95820.63
2022-08-20T02:45:44.151Z,95807.63
2022-08-20T02:50:47.522Z,95807.50
2022-08-20T02:55:50.032Z,95804.44
2022-08-20T03:00:53.051Z,95811.72
2022-08-20T03:05:59.442Z,95812.13
2022-08-20T03:11:01.802Z,95816.72
2022-08-20T03:16:05.229Z,95808.91
2022-08-20T03:21:09.858Z,95820.59
2022-08-20T03:26:13.832Z,95803.50
2022-08-20T03:31:16.247Z,95804.84
2022-08-20T03:36:20.797Z,95820.31
2022-08-20T03:41:32.373Z,95806.97
2022-08-20T03:46:35.216Z,95814.06
2022-08-20T03:51:56.393Z,95820.63
2022-08-20T03:57:01.512Z,95815.56
2022-08-20T04:02:03.807Z,95818.22
2022-08-20T04:07:20.772Z,95824.50
2022-08-20T04:12:24.637Z,95821.03
2022-08-20T04:17:27.440Z,95819.06
2022-08-20T04:22:30.125Z,95815.56
2022-08-20T04:27:35.466Z,95819.47
2022-08-20T04:32:39.159Z,95818.06
2022-08-20T04:37:42.449Z,95828.28
2022-08-20T04:42:44.581Z,95821.56
2022-08-20T04:47:47.336Z,95817.06
2022-08-20T04:52:50.159Z,95823.09
2022-08-20T04:57:54.111Z,95819.69
2022-08-20T05:02:56.311Z,95814.09
2022-08-20T05:07:58.650Z,95819.75
2022-08-20T05:13:01.008Z,95812.34
2022-08-20T05:18:06.019Z,95818.78
2022-08-20T05:23:12.263Z,95814.75
2022-08-20T05:28:19.803Z,95808.94
2022-08-20T05:33:23.769Z,95805.16
2022-08-20T05:38:29.118Z,95807.78
2022-08-20T05:43:33.835Z,95798.44
2022-08-20T05:48:36.187Z,95789.00
2022-08-20T05:53:40.377Z,95790.28
2022-08-20T05:58:42.629Z,95769.34
2022-08-20T06:04:03.509Z,95768.09
2022-08-20T06:09:06.050Z,95762.47
2022-08-20T06:14:08.301Z,95749.88
2022-08-20T06:19:11.705Z,95753.81
2022-08-20T06:24:15.778Z,95740.38
2022-08-20T06:29:18.797Z,95747.97
2022-08-20T06:34:21.186Z,95734.19
2022-08-20T06:39:25.048Z,95739.44
2022-08-20T06:44:28.659Z,95711.25
2022-08-20T06:49:35.442Z,95717.25
2022-08-20T06:54:37.755Z,95708.97
2022-08-20T06:59:40.424Z,95709.84
2022-08-20T07:04:45.043Z,95701.19
2022-08-20T07:09:47.592Z,95699.25
2022-08-20T07:14:53.384Z,95685.66
2022-08-20T07:19:56.038Z,95686.34
2022-08-20T07:24:58.173Z,95677.25
2022-08-20T07:30:20.060Z,95676.16
2022-08-20T07:35:22.796Z,95664.88
2022-08-20T07:40:30.801Z,95661.47
2022-08-20T07:45:36.506Z,95663.69
2022-08-20T07:50:39.059Z,95649.97
2022-08-20T07:55:41.860Z,95653.25
2022-08-20T08:01:01.322Z,95643.69
2022-08-20T08:06:05.198Z,95645.34
2022-08-20T08:11:08.259Z,95643.50
2022-08-20T08:16:10.681Z,95645.84
2022-08-20T08:21:13.288Z,95654.69
2022-08-20T08:26:19.003Z,95645.72
2022-08-20T08:31:21.657Z,95657.06
2022-08-20T08:36:26.518Z,95654.28
2022-08-20T08:41:49.713Z,95645.63
2022-08-20T08:46:58.911Z,95646.41
2022-08-20T08:52:07.496Z,95640.41
2022-08-20T08:57:10.958Z,95624.03
2022-08-20T09:02:20.393Z,95618.25
2022-08-20T09:07:26.647Z,95625.94
2022-08-20T09:12:29.034Z,95615.84
2022-08-20T09:17:31.445Z,95618.75
2022-08-20T09:22:34.016Z,95608.53
2022-08-20T09:27:36.394Z,95628.66
2022-08-20T09:32:41.586Z,95611.75
2022-08-20T09:37:44.077Z,95611.22
2022-08-20T09:42:48.591Z,95611.31
2022-08-20T09:54:03.762Z,95592.38
2022-08-20T09:59:06.696Z,95585.78
2022-08-20T10:04:08.926Z,95573.16
2022-08-20T10:10:01.731Z,95599.09
2022-08-20T10:20:57.643Z,95576.41
2022-08-20T10:26:00.159Z,95584.84
2022-08-20T10:31:02.366Z,95573.41
2022-08-20T10:36:17.524Z,95575.69
2022-08-20T10:41:21.630Z,95541.59
2022-08-20T10:46:23.798Z,95549.72
2022-08-20T10:51:32.641Z,95529.44
2022-08-20T10:56:36.592Z,95561.22
2022-08-20T11:01:39.629Z,95545.09
2022-08-20T11:06:42.554Z,95543.38
2022-08-20T11:11:44.773Z,95539.38
2022-08-20T11:16:46.873Z,95525.13
2022-08-20T11:21:49.121Z,95539.81
2022-08-20T11:26:53.434Z,95539.97
2022-08-20T11:31:55.861Z,95536.03
2022-08-20T11:36:59.377Z,95526.97
2022-08-20T11:42:02.061Z,95515.09
2022-08-20T11:47:06.397Z,95500.41
2022-08-20T11:52:09.152Z,95509.50
2022-08-20T11:57:12.047Z,95503.28
2022-08-20T12:02:14.148Z,95499.03
2022-08-20T12:07:19.624Z,95494.34
2022-08-20T12:12:24.753Z,95491.78
2022-08-20T12:17:30.726Z,95492.16
2022-08-20T12:22:33.703Z,95477.72
2022-08-20T12:27:37.922Z,95470.00
2022-08-20T12:32:40.745Z,95477.94
2022-08-20T12:37:44.347Z,95472.34
2022-08-20T12:42:47.103Z,95462.09
2022-08-20T12:47:50.022Z,95460.22
2022-08-20T12:52:52.689Z,95460.13
2022-08-20T12:58:01.469Z,95471.50
2022-08-20T13:03:07.004Z,95468.78
2022-08-20T13:08:12.163Z,95459.28
2022-08-20T13:13:20.193Z,95455.91
2022-08-20T13:18:23.216Z,95445.69
2022-08-20T13:23:25.487Z,95434.72
2022-08-20T13:28:28.651Z,95442.53
2022-08-20T13:33:31.045Z,95441.19
2022-08-20T13:38:34.623Z,95430.22
2022-08-20T13:43:37.008Z,95417.28
2022-08-20T13:48:39.389Z,95412.38
2022-08-20T13:53:41.526Z,95383.81
2022-08-20T13:58:46.309Z,95376.66
2022-08-20T14:03:51.396Z,95387.84
2022-08-20T14:08:54.280Z,95381.13
2022-08-20T14:13:56.473Z,95391.59
2022-08-20T14:18:58.861Z,95375.59
2022-08-20T14:24:02.140Z,95353.91
2022-08-20T14:29:04.302Z,95350.34
2022-08-20T14:34:06.757Z,95355.16
2022-08-20T14:39:08.917Z,95356.63
2022-08-20T14:44:11.345Z,95361.41
2022-08-20T14:49:13.436Z,95363.44
2022-08-20T14:54:15.690Z,95363.69
2022-08-20T14:59:18.037Z,95373.59
2022-08-20T15:04:20.358Z,95381.56
2022-08-20T15:09:22.640Z,95383.53
2022-08-20T15:14:25.329Z,95374.09
2022-08-20T15:19:29.962Z,95389.16
2022-08-20T15:25:02.979Z,95401.75
2022-08-20T15:30:11.408Z,95394.56
2022-08-20T15:35:14.959Z,95395.78
2022-08-20T15:40:24.483Z,95393.16
2022-08-20T15:45:30.019Z,95392.69
2022-08-20T15:51:30.476Z,95398.97
2022-08-20T15:56:48.725Z,95399.16
2022-08-20T16:02:09.488Z,95406.69
2022-08-20T16:07:20.840Z,95403.50
2022-08-20T16:12:35.202Z,95414.19
2022-08-20T16:17:45.020Z,95417.63
2022-08-20T16:22:47.736Z,95413.63
2022-08-20T16:28:12.632Z,95428.31
2022-08-20T16:33:22.213Z,95437.22
2022-08-20T16:38:39.442Z,95443.28
2022-08-20T16:43:51.361Z,95444.69
2022-08-20T16:48:58.511Z,95437.06
2022-08-20T16:54:00.982Z,95459.41
2022-08-20T16:59:11.945Z,95465.91
2022-08-20T17:04:23.234Z,95463.00
2022-08-20T17:09:34.432Z,95467.38
2022-08-20T17:14:48.420Z,95468.44
2022-08-20T17:19:59.148Z,95466.97
2022-08-20T17:25:15.206Z,95473.72
2022-08-20T17:30:29.678Z,95494.72
2022-08-20T17:35:44.141Z,95563.44
2022-08-20T17:40:47.480Z,95560.59
2022-08-20T17:45:50.967Z,95591.31
2022-08-20T17:50:54.682Z,95606.47
2022-08-20T17:56:04.301Z,95619.81
2022-08-20T18:01:09.080Z,95619.63
2022-08-20T18:06:28.487Z,95618.13
2022-08-20T18:11:40.624Z,95623.50
2022-08-20T18:16:50.143Z,95656.13
2022-08-20T18:22:26.108Z,95642.25
2022-08-20T18:27:38.427Z,95659.31
2022-08-20T18:32:48.910Z,95679.59
2022-08-20T18:37:55.862Z,95684.28
2022-08-20T18:43:00.014Z,95675.53
2022-08-20T18:48:06.782Z,95676.78
2022-08-20T18:53:12.189Z,95697.78
2022-08-20T18:58:38.644Z,95689.63
2022-08-20T19:03:54.526Z,95698.13
2022-08-20T19:09:08.551Z,95674.28
2022-08-20T19:14:34.217Z,95691.88
2022-08-20T19:19:47.167Z,95700.78
2022-08-20T19:25:06.682Z,95683.00
2022-08-20T19:30:42.493Z,95672.06
2022-08-20T19:35:46.208Z,95665.91
2022-08-20T19:41:11.808Z,95656.69
2022-08-20T19:46:46.975Z,95645.66
2022-08-20T19:52:23.616Z,95645.97
2022-08-20T19:57:54.285Z,95648.53
2022-08-20T20:02:58.233Z,95638.97
2022-08-20T20:08:05.017Z,95637.38
2022-08-20T20:13:15.526Z,95632.47
2022-08-20T20:18:21.335Z,95634.19
2022-08-20T20:23:38.584Z,95627.78
2022-08-20T20:29:03.894Z,95632.75
2022-08-20T20:34:14.850Z,95610.84
2022-08-20T20:39:40.057Z,95616.69
2022-08-20T20:44:46.118Z,95629.03
2022-08-20T20:49:52.912Z,95629.13
2022-08-20T20:55:21.037Z,95641.31
2022-08-20T21:00:28.962Z,95646.09
2022-08-20T21:05:35.509Z,95627.50
2022-08-20T21:10:40.706Z,95650.78
2022-08-20T21:15:43.279Z,95624.13
2022-08-20T21:20:45.656Z,95609.63
2022-08-20T21:25:47.958Z,95645.31
2022-08-20T21:30:58.266Z,95635.00
2022-08-20T21:36:04.973Z,95614.28
2022-08-20T21:41:07.995Z,95656.03
2022-08-20T21:46:12.728Z,95639.53
2022-08-20T21:51:16.723Z,95634.81
2022-08-20T21:56:19.515Z,95629.94
2022-08-20T22:01:22.246Z,95657.84
2022-08-20T22:06:25.026Z,95660.03
2022-08-20T22:11:28.852Z,95698.03
2022-08-20T22:16:31.587Z,95681.00
2022-08-20T22:22:28.209Z,95714.81
2022-08-20T22:27:32.382Z,95714.03
2022-08-20T22:32:52.040Z,95723.94
2022-08-20T22:37:57.661Z,95747.34
2022-08-20T22:43:02.211Z,95735.56
2022-08-20T22:48:06.494Z,95716.13
2022-08-20T23:27:54.240Z,95785.13
2022-08-20T23:32:56.827Z,95772.50
2022-08-20T23:37:59.715Z,95766.84
2022-08-20T23:43:01.940Z,95764.88
2022-08-20T23:48:04.288Z,95742.19
2022-08-20T23:53:06.905Z,95718.56
2022-08-20T23:58:09.118Z,95736.19
